createdAt,value
2022-12-04T00:00:56.074Z,5.43
2022-12-04T00:03:29.023Z,4.87
2022-12-04T00:06:05.056Z,4.87
2022-12-04T00:08:38.368Z,5.57
2022-12-04T00:11:12.139Z,5.63
2022-12-04T00:13:45.169Z,5.90
2022-12-04T00:16:19.275Z,3.13
2022-12-04T00:18:52.772Z,5.63
2022-12-04T00:21:25.951Z,6.20
2022-12-04T00:23:58.890Z,4.57
2022-12-04T00:26:31.817Z,4.13
2022-12-04T00:29:04.801Z,5.63
2022-12-04T00:31:37.749Z,4.97
2022-12-04T00:34:10.789Z,5.97
2022-12-04T00:36:43.725Z,4.93
2022-12-04T00:39:16.661Z,5.87
2022-12-04T00:41:49.563Z,5.90
2022-12-04T00:44:22.526Z,5.57
2022-12-04T00:46:55.425Z,4.97
2022-12-04T00:49:28.324Z,6.23
2022-12-04T00:52:01.240Z,5.60
2022-12-04T00:54:34.245Z,6.33
2022-12-04T00:57:07.190Z,3.87
2022-12-04T00:59:40.167Z,4.57
2022-12-04T01:02:13.123Z,4.87
2022-12-04T01:04:46.149Z,5.43
2022-12-04T01:07:19.156Z,6.33
2022-12-04T01:09:52.112Z,5.53
2022-12-04T01:12:25.202Z,6.07
2022-12-04T01:14:58.105Z,5.87
2022-12-04T01:17:31.000Z,6.77
2022-12-04T01:20:04.662Z,5.60
2022-12-04T01:22:37.584Z,6.03
2022-12-04T01:25:10.618Z,5.73
2022-12-04T01:27:43.529Z,5.47
2022-12-04T01:30:16.553Z,5.70
2022-12-04T01:32:49.468Z,8.13
2022-12-04T01:35:22.347Z,6.40
2022-12-04T01:37:55.241Z,5.33
2022-12-04T01:40:28.129Z,7.37
2022-12-04T01:43:01.080Z,6.47
2022-12-04T01:45:41.858Z,5.33
2022-12-04T01:48:33.298Z,4.73
2022-12-04T01:51:06.247Z,4.47
2022-12-04T01:53:40.991Z,6.27
2022-12-04T01:56:14.559Z,5.77
2022-12-04T01:58:50.718Z,6.40
2022-12-04T02:01:24.147Z,5.23
2022-12-04T02:03:57.421Z,6.10
2022-12-04T02:06:30.313Z,5.73
2022-12-04T02:09:03.321Z,4.77
2022-12-04T02:11:43.241Z,3.30
2022-12-04T02:14:16.133Z,4.33
2022-12-04T02:16:49.063Z,6.53
2022-12-04T02:19:40.819Z,5.50
2022-12-04T02:22:29.587Z,5.83
2022-12-04T02:25:11.784Z,6.10
2022-12-04T02:28:00.119Z,5.77
2022-12-04T02:30:36.668Z,6.70
2022-12-04T02:33:21.247Z,5.47
2022-12-04T02:36:20.517Z,5.43
2022-12-04T02:39:02.094Z,3.87
2022-12-04T02:41:39.536Z,4.73
2022-12-04T02:44:21.306Z,3.77
2022-12-04T02:46:58.283Z,5.30
2022-12-04T02:49:33.670Z,5.67
2022-12-04T02:52:12.349Z,5.87
2022-12-04T02:54:51.311Z,6.60
2022-12-04T02:57:27.295Z,5.47
2022-12-04T03:00:01.241Z,5.90
2022-12-04T03:02:34.391Z,5.90
2022-12-04T03:05:10.535Z,5.70
2022-12-04T03:07:50.860Z,6.33
2022-12-04T03:10:33.159Z,5.80
2022-12-04T03:13:06.016Z,5.30
2022-12-04T03:15:44.828Z,7.80
2022-12-04T03:18:20.860Z,6.47
2022-12-04T03:20:58.482Z,5.60
2022-12-04T03:23:34.756Z,5.97
2022-12-04T03:26:16.829Z,6.03
2022-12-04T03:28:54.879Z,7.07
2022-12-04T03:32:00.347Z,6.13
2022-12-04T03:34:43.907Z,7.97
2022-12-04T03:37:19.116Z,5.57
2022-12-04T03:39:55.363Z,6.23
2022-12-04T03:42:32.911Z,5.67
2022-12-04T03:45:05.910Z,5.37
2022-12-04T03:47:41.554Z,6.20
2022-12-04T03:50:17.844Z,6.00
2022-12-04T03:53:00.865Z,5.37
2022-12-04T03:55:41.245Z,5.70
2022-12-04T03:58:15.716Z,5.97
2022-12-04T04:00:50.511Z,5.63
2022-12-04T04:03:25.148Z,5.87
2022-12-04T04:06:01.270Z,5.57
2022-12-04T04:08:37.409Z,5.83
2022-12-04T04:11:28.637Z,4.50
2022-12-04T04:14:23.692Z,5.60
2022-12-04T04:17:19.867Z,4.80
2022-12-04T04:20:23.979Z,5.47
2022-12-04T04:23:18.111Z,5.00
2022-12-04T04:25:52.350Z,5.33
2022-12-04T04:28:33.437Z,5.83
2022-12-04T04:31:26.865Z,4.97
2022-12-04T04:34:18.080Z,5.70
2022-12-04T04:36:56.056Z,5.20
2022-12-04T04:39:32.121Z,4.93
2022-12-04T04:42:37.532Z,4.90
2022-12-04T04:45:34.345Z,4.13
2022-12-04T04:48:09.991Z,5.43
2022-12-04T04:50:43.217Z,4.13
2022-12-04T04:53:28.336Z,4.87
2022-12-04T04:56:01.427Z,4.37
2022-12-04T04:58:34.887Z,4.80
2022-12-04T05:01:12.876Z,4.97
2022-12-04T05:03:45.984Z,5.30
2022-12-04T05:06:18.904Z,5.13
2022-12-04T05:08:51.892Z,4.60
2022-12-04T05:11:24.877Z,5.17
2022-12-04T05:13:57.769Z,5.17
2022-12-04T05:16:30.806Z,7.53
2022-12-04T05:19:22.416Z,5.63
2022-12-04T05:21:57.019Z,4.90
2022-12-04T05:24:30.087Z,5.57
2022-12-04T05:27:03.021Z,4.77
2022-12-04T05:29:36.203Z,4.40
2022-12-04T05:32:09.403Z,5.17
2022-12-04T05:34:42.328Z,7.25
2022-12-04T05:37:15.235Z,5.27
2022-12-04T05:39:48.611Z,5.67
2022-12-04T05:42:21.765Z,5.67
2022-12-04T05:44:54.642Z,5.10
2022-12-04T05:47:27.551Z,4.67
2022-12-04T05:50:00.441Z,5.23
2022-12-04T05:52:33.400Z,5.23
2022-12-04T05:55:06.523Z,5.07
2022-12-04T05:57:39.427Z,5.40
2022-12-04T06:00:12.689Z,5.33
2022-12-04T06:02:45.720Z,5.20
2022-12-04T06:05:18.614Z,5.37
2022-12-04T06:07:51.641Z,5.00
2022-12-04T06:10:24.571Z,5.27
2022-12-04T06:12:58.058Z,5.67
2022-12-04T06:15:30.992Z,5.70
2022-12-04T06:18:03.908Z,5.77
2022-12-04T06:20:37.187Z,5.43
2022-12-04T06:23:10.403Z,4.67
2022-12-04T06:25:43.274Z,5.50
2022-12-04T06:28:16.200Z,4.37
2022-12-04T06:30:49.097Z,4.93
2022-12-04T06:33:22.024Z,5.17
2022-12-04T06:35:58.909Z,4.77
2022-12-04T06:38:31.881Z,5.73
2022-12-04T06:41:05.563Z,5.13
2022-12-04T06:43:38.741Z,4.93
2022-12-04T06:46:30.834Z,5.30
2022-12-04T06:49:04.107Z,5.73
2022-12-04T06:51:37.541Z,6.20
2022-12-04T06:54:10.943Z,5.83
2022-12-04T06:56:44.001Z,6.40
2022-12-04T06:59:16.918Z,6.37
2022-12-04T07:01:49.925Z,5.90
2022-12-04T07:04:23.223Z,3.70
2022-12-04T07:06:56.096Z,5.77
2022-12-04T07:09:28.993Z,5.03
2022-12-04T07:12:01.901Z,4.97
2022-12-04T07:14:34.817Z,5.72
2022-12-04T07:17:07.756Z,4.83
2022-12-04T07:19:40.746Z,4.93
2022-12-04T07:22:13.639Z,4.57
2022-12-04T07:24:46.529Z,5.47
2022-12-04T07:27:19.398Z,4.93
2022-12-04T07:29:53.237Z,5.63
2022-12-04T07:32:26.251Z,6.40
2022-12-04T07:34:59.138Z,6.20
2022-12-04T07:37:32.436Z,4.70
2022-12-04T07:40:05.784Z,5.67
2022-12-04T07:42:38.677Z,4.53
2022-12-04T07:45:11.769Z,6.23
2022-12-04T07:47:45.683Z,5.10
2022-12-04T07:50:18.632Z,5.57
2022-12-04T07:52:51.550Z,3.73
2022-12-04T07:55:24.498Z,5.97
2022-12-04T07:57:57.377Z,5.50
2022-12-04T08:00:30.578Z,3.67
2022-12-04T08:03:03.531Z,5.67
2022-12-04T08:05:36.487Z,5.33
2022-12-04T08:08:09.440Z,4.90
2022-12-04T08:10:42.496Z,4.20
2022-12-04T08:13:15.356Z,5.17
2022-12-04T08:15:48.246Z,3.50
2022-12-04T08:18:21.175Z,5.53
2022-12-04T08:20:54.105Z,5.37
2022-12-04T08:23:26.981Z,5.90
2022-12-04T08:26:00.535Z,5.37
2022-12-04T08:28:33.868Z,5.17
2022-12-04T08:31:07.689Z,4.73
2022-12-04T08:33:41.192Z,5.30
2022-12-04T08:36:15.859Z,6.00
2022-12-04T08:38:49.328Z,4.90
2022-12-04T08:41:27.554Z,3.93
2022-12-04T08:44:06.587Z,4.97
2022-12-04T08:46:39.939Z,4.90
2022-12-04T08:49:12.871Z,5.20
2022-12-04T08:51:45.807Z,5.13
2022-12-04T08:54:18.732Z,4.83
2022-12-04T08:56:51.640Z,5.50
2022-12-04T08:59:24.544Z,4.87
2022-12-04T09:01:57.473Z,4.43
2022-12-04T09:04:30.598Z,10.50
2022-12-04T09:07:03.570Z,5.80
2022-12-04T09:09:36.482Z,4.53
2022-12-04T09:12:09.366Z,5.80
2022-12-04T09:14:42.292Z,5.87
2022-12-04T09:17:15.168Z,6.07
2022-12-04T09:19:48.060Z,5.23
2022-12-04T09:22:20.941Z,5.73
2022-12-04T09:24:53.847Z,6.10
2022-12-04T09:27:26.823Z,6.87
2022-12-04T09:29:59.720Z,8.00
2022-12-04T09:32:32.605Z,10.02
2022-12-04T09:35:06.347Z,6.77
2022-12-04T09:37:39.513Z,5.00
2022-12-04T09:40:20.559Z,6.60
2022-12-04T09:43:03.030Z,6.80
2022-12-04T09:45:43.521Z,6.07
2022-12-04T09:48:17.122Z,6.53
2022-12-04T09:50:50.280Z,6.93
2022-12-04T09:53:43.450Z,6.17
2022-12-04T09:56:19.770Z,6.17
2022-12-04T09:58:55.682Z,6.40
2022-12-04T10:01:31.752Z,7.13
2022-12-04T10:04:06.598Z,6.30
2022-12-04T10:06:53.385Z,5.90
2022-12-04T10:09:32.884Z,5.03
2022-12-04T10:12:21.162Z,6.33
2022-12-04T10:15:01.355Z,6.07
2022-12-04T10:17:40.282Z,6.43
2022-12-04T10:20:16.160Z,6.10
2022-12-04T10:22:56.618Z,5.67
2022-12-04T10:25:29.564Z,5.87
2022-12-04T10:28:21.270Z,5.20
2022-12-04T10:30:56.194Z,6.67
2022-12-04T10:33:44.558Z,5.80
2022-12-04T10:36:19.393Z,5.30
2022-12-04T10:38:58.174Z,5.67
2022-12-04T10:42:06.663Z,5.87
2022-12-04T10:44:39.610Z,5.37
2022-12-04T10:47:13.762Z,4.80
2022-12-04T10:49:46.702Z,5.20
2022-12-04T10:52:19.620Z,6.03
2022-12-04T10:55:00.330Z,5.03
2022-12-04T10:57:37.611Z,5.80
2022-12-04T11:00:31.242Z,5.67
2022-12-04T11:03:24.421Z,6.43
2022-12-04T11:05:59.170Z,5.97
2022-12-04T11:08:49.443Z,4.83
2022-12-04T11:11:30.871Z,5.60
2022-12-04T11:14:06.756Z,5.37
2022-12-04T11:16:41.937Z,6.03
2022-12-04T11:19:22.366Z,6.40
2022-12-04T11:21:56.846Z,5.60
2022-12-04T11:24:35.264Z,5.30
2022-12-04T11:27:08.946Z,4.77
2022-12-04T11:29:43.756Z,8.15
2022-12-04T11:32:24.643Z,5.63
2022-12-04T11:35:00.446Z,5.50
2022-12-04T11:37:33.981Z,5.33
2022-12-04T11:40:15.765Z,5.27
2022-12-04T11:43:04.844Z,5.93
2022-12-04T11:45:37.826Z,6.00
2022-12-04T11:48:15.911Z,6.13
2022-12-04T11:50:48.792Z,4.90
2022-12-04T11:53:26.854Z,5.57
2022-12-04T11:56:22.356Z,5.60
2022-12-04T11:58:55.254Z,5.50
2022-12-04T12:01:37.485Z,5.97
2022-12-04T12:04:16.650Z,4.03
2022-12-04T12:06:49.552Z,5.90
2022-12-04T12:09:31.705Z,6.07
2022-12-04T12:12:08.119Z,5.60
2022-12-04T12:14:55.112Z,6.70
2022-12-04T12:17:37.211Z,5.40
2022-12-04T12:20:28.984Z,5.30
2022-12-04T12:23:04.644Z,4.20
2022-12-04T12:25:52.403Z,4.53
2022-12-04T12:28:40.743Z,4.80
2022-12-04T12:31:33.970Z,4.93
2022-12-04T12:34:18.987Z,4.83
2022-12-04T12:36:57.816Z,5.67
2022-12-04T12:39:40.168Z,4.43
2022-12-04T12:42:18.721Z,4.73
2022-12-04T12:45:03.244Z,4.97
2022-12-04T12:47:41.449Z,5.60
2022-12-04T12:50:17.003Z,5.47
2022-12-04T12:52:55.076Z,5.40
2022-12-04T12:55:31.437Z,5.67
2022-12-04T12:58:07.964Z,5.90
2022-12-04T13:01:03.045Z,4.70
2022-12-04T13:03:35.915Z,4.77
2022-12-04T13:06:12.837Z,5.30
2022-12-04T13:08:49.488Z,5.10
2022-12-04T13:11:24.268Z,7.20
2022-12-04T13:14:04.519Z,5.20
2022-12-04T13:16:41.664Z,3.83
2022-12-04T13:19:23.808Z,5.60
2022-12-04T13:22:01.574Z,5.97
2022-12-04T13:24:40.677Z,5.83
2022-12-04T13:27:32.590Z,5.23
2022-12-04T13:30:06.181Z,7.82
2022-12-04T13:32:48.259Z,6.30
2022-12-04T13:35:40.044Z,5.17
2022-12-04T13:38:21.827Z,4.87
2022-12-04T13:40:56.690Z,5.57
2022-12-04T13:43:34.856Z,5.07
2022-12-04T13:46:09.032Z,5.23
2022-12-04T13:48:43.450Z,5.53
2022-12-04T13:51:23.828Z,5.00
2022-12-04T13:54:04.788Z,5.83
2022-12-04T13:56:38.372Z,4.93
2022-12-04T13:59:22.442Z,5.10
2022-12-04T14:01:56.742Z,5.40
2022-12-04T14:04:46.001Z,4.77
2022-12-04T14:07:25.476Z,5.33
2022-12-04T14:10:00.961Z,4.90
2022-12-04T14:12:38.732Z,5.40
2022-12-04T14:15:25.285Z,4.63
2022-12-04T14:18:00.772Z,4.23
2022-12-04T14:20:34.694Z,5.27
2022-12-04T14:23:17.914Z,5.40
2022-12-04T14:25:51.197Z,4.77
2022-12-04T14:28:38.693Z,4.77
2022-12-04T14:31:24.149Z,4.10
2022-12-04T14:33:58.659Z,5.17
2022-12-04T14:36:37.353Z,5.70
2022-12-04T14:39:13.301Z,4.90
2022-12-04T14:41:46.210Z,4.90
2022-12-04T14:44:23.655Z,5.50
2022-12-04T14:46:59.959Z,4.97
2022-12-04T14:49:51.435Z,4.40
2022-12-04T14:52:27.431Z,5.43
2022-12-04T14:55:19.096Z,4.43
2022-12-04T14:57:54.876Z,4.60
2022-12-04T15:00:27.880Z,4.30
2022-12-04T15:03:01.321Z,4.37
2022-12-04T15:05:34.316Z,4.50
2022-12-04T15:08:07.421Z,4.73
2022-12-04T15:10:59.465Z,4.67
2022-12-04T15:13:33.434Z,6.20
2022-12-04T15:16:10.093Z,5.23
2022-12-04T15:18:53.162Z,4.57
2022-12-04T15:21:35.110Z,3.90
2022-12-04T15:24:12.293Z,4.60
2022-12-04T15:26:46.643Z,3.83
2022-12-04T15:29:22.052Z,5.10
2022-12-04T15:31:56.823Z,6.10
2022-12-04T15:34:37.171Z,5.73
2022-12-04T15:37:16.106Z,5.60
2022-12-04T15:39:52.386Z,3.83
2022-12-04T15:42:29.769Z,4.07
2022-12-04T15:45:22.419Z,5.20
2022-12-04T15:47:55.763Z,3.87
2022-12-04T15:50:29.252Z,4.67
2022-12-04T15:53:02.163Z,4.23
2022-12-04T15:55:49.498Z,4.30
2022-12-04T15:58:30.261Z,5.23
2022-12-04T16:01:11.517Z,3.87
2022-12-04T16:03:55.276Z,4.23
2022-12-04T16:06:30.340Z,4.60
2022-12-04T16:09:18.529Z,4.70
2022-12-04T16:11:58.602Z,4.20
2022-12-04T16:14:31.559Z,4.83
2022-12-04T16:17:06.539Z,5.40
2022-12-04T16:19:40.782Z,5.00
2022-12-04T16:22:17.347Z,4.70
2022-12-04T16:24:53.816Z,4.47
2022-12-04T16:27:26.916Z,4.27
2022-12-04T16:29:59.877Z,4.70
2022-12-04T16:32:33.539Z,4.10
2022-12-04T16:35:06.749Z,4.60
2022-12-04T16:37:39.626Z,4.53
2022-12-04T16:40:13.271Z,5.13
2022-12-04T16:42:46.126Z,4.77
2022-12-04T16:45:24.020Z,4.67
2022-12-04T16:47:57.937Z,4.63
2022-12-04T16:50:30.815Z,4.50
2022-12-04T16:53:03.673Z,5.43
2022-12-04T16:55:40.884Z,5.37
2022-12-04T16:58:13.762Z,5.40
2022-12-04T17:00:50.405Z,4.73
2022-12-04T17:03:28.717Z,4.80
2022-12-04T17:06:01.982Z,4.77
2022-12-04T17:08:34.884Z,5.60
2022-12-04T17:11:09.480Z,6.43
2022-12-04T17:13:42.614Z,6.27
2022-12-04T17:16:17.611Z,7.63
2022-12-04T17:18:52.839Z,5.80
2022-12-04T17:21:25.880Z,6.83
2022-12-04T17:23:58.804Z,6.23
2022-12-04T17:26:31.698Z,8.07
2022-12-04T17:29:04.596Z,7.40
2022-12-04T17:31:37.575Z,6.17
2022-12-04T17:34:10.544Z,9.45
2022-12-04T17:36:43.410Z,7.00
2022-12-04T17:39:16.335Z,7.57
2022-12-04T17:41:49.580Z,7.23
2022-12-04T17:44:22.737Z,6.43
2022-12-04T17:46:55.807Z,6.90
2022-12-04T17:49:28.792Z,6.13
2022-12-04T17:52:02.000Z,6.70
2022-12-04T17:54:34.984Z,6.77
2022-12-04T17:57:07.959Z,7.80
2022-12-04T17:59:41.902Z,6.77
2022-12-04T18:02:15.087Z,6.87
2022-12-04T18:04:47.974Z,7.00
2022-12-04T18:07:20.903Z,6.83
2022-12-04T18:09:53.866Z,7.67
2022-12-04T18:12:26.872Z,7.20
2022-12-04T18:14:59.859Z,6.63
2022-12-04T18:17:32.920Z,6.60
2022-12-04T18:20:06.811Z,6.57
2022-12-04T18:22:39.930Z,6.10
2022-12-04T18:25:12.800Z,6.97
2022-12-04T18:27:45.736Z,7.40
2022-12-04T18:30:18.630Z,6.83
2022-12-04T18:32:52.434Z,7.30
2022-12-04T18:35:25.311Z,7.23
2022-12-04T18:37:58.238Z,7.60
2022-12-04T18:40:31.155Z,7.37
2022-12-04T18:43:04.062Z,7.70
2022-12-04T18:45:36.998Z,7.23
2022-12-04T18:48:10.469Z,6.63
2022-12-04T18:50:43.407Z,7.47
2022-12-04T18:53:18.418Z,6.67
2022-12-04T18:55:54.975Z,7.10
2022-12-04T18:58:27.913Z,7.77
2022-12-04T19:01:10.775Z,7.20
2022-12-04T19:03:43.732Z,7.30
2022-12-04T19:06:16.655Z,6.87
2022-12-04T19:08:49.582Z,7.10
2022-12-04T19:11:22.488Z,6.33
2022-12-04T19:13:55.440Z,6.33
2022-12-04T19:16:29.150Z,6.47
2022-12-04T19:19:02.833Z,6.30
2022-12-04T19:21:35.751Z,6.37
2022-12-04T19:24:10.266Z,6.40
2022-12-04T19:26:43.186Z,6.17
2022-12-04T19:29:16.271Z,6.70
2022-12-04T19:31:49.652Z,7.37
2022-12-04T19:34:24.386Z,6.10
2022-12-04T19:36:57.417Z,6.63
2022-12-04T19:39:30.391Z,6.87
2022-12-04T19:42:03.327Z,6.60
2022-12-04T19:44:51.740Z,6.77
2022-12-04T19:47:24.681Z,6.23
2022-12-04T19:49:58.031Z,7.10
2022-12-04T19:52:31.850Z,6.13
2022-12-04T19:55:04.901Z,7.63
2022-12-04T19:57:37.834Z,7.20
2022-12-04T20:00:11.013Z,6.40
2022-12-04T20:02:46.837Z,6.57
2022-12-04T20:05:19.898Z,7.50
2022-12-04T20:07:52.835Z,6.97
2022-12-04T20:10:25.848Z,7.13
2022-12-04T20:12:58.818Z,6.93
2022-12-04T20:15:35.123Z,7.07
2022-12-04T20:18:08.015Z,11.00
2022-12-04T20:20:42.828Z,12.83
2022-12-04T20:23:15.855Z,7.83
2022-12-04T20:25:48.831Z,7.00
2022-12-04T20:28:22.462Z,6.20
2022-12-04T20:30:55.485Z,6.77
2022-12-04T20:33:28.503Z,6.70
2022-12-04T20:36:01.450Z,6.77
2022-12-04T20:38:34.522Z,6.47
2022-12-04T20:41:08.704Z,6.37
2022-12-04T20:43:41.622Z,6.60
2022-12-04T20:46:21.087Z,6.53
2022-12-04T20:48:54.362Z,6.60
2022-12-04T20:51:28.696Z,6.77
2022-12-04T20:54:02.256Z,6.73
2022-12-04T20:56:37.055Z,5.67
2022-12-04T20:59:11.665Z,5.77
2022-12-04T21:01:44.653Z,6.00
2022-12-04T21:04:18.166Z,5.83
2022-12-04T21:06:51.339Z,6.67
2022-12-04T21:09:25.065Z,5.03
2022-12-04T21:11:58.176Z,6.40
2022-12-04T21:14:50.873Z,6.23
2022-12-04T21:17:24.134Z,9.10
2022-12-04T21:20:00.370Z,7.10
2022-12-04T21:22:37.209Z,6.03
2022-12-04T21:25:10.373Z,7.37
2022-12-04T21:27:43.393Z,6.20
2022-12-04T21:30:16.516Z,5.60
2022-12-04T21:32:49.469Z,6.20
2022-12-04T21:35:22.372Z,6.13
2022-12-04T21:37:56.639Z,8.52
2022-12-04T21:40:29.598Z,6.67
2022-12-04T21:43:02.479Z,5.90
2022-12-04T21:45:35.490Z,4.80
2022-12-04T21:48:08.557Z,5.03
2022-12-04T21:50:41.479Z,4.90
2022-12-04T21:53:14.478Z,5.97
2022-12-04T21:55:56.965Z,5.80
2022-12-04T21:58:30.763Z,4.47
2022-12-04T22:01:09.167Z,4.77
2022-12-04T22:03:42.137Z,4.70
2022-12-04T22:06:15.255Z,4.20
2022-12-04T22:08:48.794Z,5.10
2022-12-04T22:11:21.882Z,4.63
2022-12-04T22:13:54.840Z,3.90
2022-12-04T22:16:30.576Z,3.73
2022-12-04T22:19:04.824Z,4.23
2022-12-04T22:21:38.200Z,4.20
2022-12-04T22:24:11.440Z,3.87
2022-12-04T22:26:44.419Z,3.10
2022-12-04T22:29:48.593Z,3.60
2022-12-04T22:32:10.351Z,3.40
2022-12-04T22:34:43.229Z,2.97
2022-12-04T22:37:16.135Z,3.30
2022-12-04T22:39:49.132Z,2.80
2022-12-04T22:42:22.074Z,2.83
2022-12-04T22:44:55.043Z,3.50
2022-12-04T22:47:27.995Z,3.37
2022-12-04T22:50:01.094Z,3.20
2022-12-04T22:52:34.239Z,2.77
2022-12-04T22:55:07.367Z,3.10
2022-12-04T22:57:40.359Z,3.60
2022-12-04T23:00:13.489Z,3.33
2022-12-04T23:02:46.573Z,3.33
2022-12-04T23:05:19.610Z,3.27
2022-12-04T23:07:52.690Z,3.07
2022-12-04T23:10:25.617Z,3.40
2022-12-04T23:12:58.719Z,3.30
2022-12-04T23:15:31.699Z,3.13
2022-12-04T23:18:04.923Z,2.80
2022-12-04T23:20:37.846Z,3.07
2022-12-04T23:23:10.819Z,4.55
2022-12-04T23:25:43.773Z,3.33
2022-12-04T23:28:16.815Z,3.70
2022-12-04T23:30:49.683Z,3.10
2022-12-04T23:33:22.600Z,2.93
2022-12-04T23:35:56.428Z,2.73
2022-12-04T23:38:30.208Z,2.83
2022-12-04T23:41:07.457Z,2.80
2022-12-04T23:43:40.809Z,3.20
2022-12-04T23:46:14.679Z,2.93
2022-12-04T23:48:48.162Z,2.77
2022-12-04T23:51:21.680Z,3.00
2022-12-04T23:53:54.765Z,3.27
2022-12-04T23:56:28.545Z,3.13
2022-12-04T23:59:01.540Z,3.07
